createdAt,value
2023-06-15T00:01:34.802Z,13.35
2023-06-15T00:04:04.149Z,13.26
2023-06-15T00:06:33.301Z,13.21
2023-06-15T00:09:05.732Z,13.31
2023-06-15T00:11:36.739Z,13.14
2023-06-15T00:14:13.051Z,13.24
2023-06-15T00:16:43.302Z,13.21
2023-06-15T00:19:10.579Z,13.08
2023-06-15T00:21:43.794Z,13.11
2023-06-15T00:24:12.215Z,13.20
2023-06-15T00:26:43.946Z,13.09
2023-06-15T00:29:12.060Z,13.13
2023-06-15T00:31:45.806Z,13.04
2023-06-15T00:34:15.984Z,12.98
2023-06-15T00:36:42.870Z,13.01
2023-06-15T00:39:10.535Z,12.95
2023-06-15T00:41:45.553Z,12.96
2023-06-15T00:44:12.479Z,12.93
2023-06-15T00:46:41.669Z,12.88
2023-06-15T00:49:09.490Z,12.86
2023-06-15T00:51:41.359Z,12.84
2023-06-15T00:54:09.393Z,12.90
2023-06-15T00:56:39.094Z,12.80
2023-06-15T00:59:06.605Z,12.81
2023-06-15T01:01:35.169Z,12.87
2023-06-15T01:04:03.167Z,12.79
2023-06-15T01:06:33.425Z,12.82
2023-06-15T01:09:03.006Z,12.78
2023-06-15T01:11:37.128Z,12.79
2023-06-15T01:14:08.232Z,12.81
2023-06-15T01:16:52.003Z,12.60
2023-06-15T01:19:35.818Z,12.79
2023-06-15T01:22:20.772Z,12.75
2023-06-15T01:25:04.232Z,12.75
2023-06-15T01:27:35.306Z,12.66
2023-06-15T01:30:09.377Z,12.53
2023-06-15T01:32:40.430Z,12.64
2023-06-15T01:35:09.766Z,12.56
2023-06-15T01:37:44.835Z,12.53
2023-06-15T01:40:13.494Z,12.56
2023-06-15T01:42:41.915Z,12.52
2023-06-15T01:45:13.096Z,12.57
2023-06-15T01:47:41.417Z,12.43
2023-06-15T01:50:12.740Z,12.33
2023-06-15T01:52:42.613Z,12.41
2023-06-15T01:55:09.875Z,12.32
2023-06-15T01:57:38.922Z,12.30
2023-06-15T02:00:11.507Z,12.32
2023-06-15T02:02:42.465Z,12.39
2023-06-15T02:05:09.430Z,12.25
2023-06-15T02:07:37.437Z,12.24
2023-06-15T02:10:27.400Z,12.28
2023-06-15T02:12:56.185Z,12.12
2023-06-15T02:15:27.595Z,12.13
2023-06-15T02:17:59.701Z,12.07
2023-06-15T02:20:30.814Z,12.20
2023-06-15T02:23:01.323Z,12.22
2023-06-15T02:25:31.117Z,12.13
2023-06-15T02:28:03.333Z,12.20
2023-06-15T02:30:30.765Z,12.05
2023-06-15T02:33:01.701Z,12.09
2023-06-15T02:35:29.117Z,12.10
2023-06-15T02:37:56.660Z,11.97
2023-06-15T02:40:23.647Z,12.04
2023-06-15T02:42:50.441Z,12.05
2023-06-15T02:45:18.101Z,12.01
2023-06-15T02:47:45.282Z,11.83
2023-06-15T02:50:14.893Z,11.99
2023-06-15T02:52:42.229Z,11.93
2023-06-15T02:55:09.187Z,12.02
2023-06-15T02:57:36.835Z,12.01
2023-06-15T03:00:06.625Z,11.97
2023-06-15T03:02:35.880Z,11.97
2023-06-15T03:05:05.620Z,11.80
2023-06-15T03:07:54.115Z,11.92
2023-06-15T03:10:20.889Z,11.90
2023-06-15T03:12:47.623Z,11.74
2023-06-15T03:15:14.777Z,11.73
2023-06-15T03:17:42.683Z,11.79
2023-06-15T03:20:13.608Z,11.66
2023-06-15T03:22:41.282Z,11.72
2023-06-15T03:25:13.818Z,11.80
2023-06-15T03:27:42.746Z,11.78
2023-06-15T03:30:12.031Z,11.77
2023-06-15T03:32:39.322Z,11.86
2023-06-15T03:35:07.665Z,11.80
2023-06-15T03:37:34.510Z,11.87
2023-06-15T03:40:03.563Z,11.88
2023-06-15T03:42:30.197Z,11.85
2023-06-15T03:44:58.245Z,11.89
2023-06-15T03:47:24.862Z,11.96
2023-06-15T03:49:51.539Z,11.99
2023-06-15T03:52:18.258Z,12.07
2023-06-15T03:54:44.946Z,11.95
2023-06-15T03:57:11.903Z,11.97
2023-06-15T03:59:38.638Z,12.12
2023-06-15T04:02:14.296Z,12.12
2023-06-15T04:04:41.423Z,12.12
2023-06-15T04:07:10.477Z,12.31
2023-06-15T04:09:48.951Z,12.42
2023-06-15T04:12:15.863Z,12.32
2023-06-15T04:14:43.359Z,12.41
2023-06-15T04:17:12.649Z,12.45
2023-06-15T04:19:43.158Z,12.43
2023-06-15T04:22:14.424Z,12.50
2023-06-15T04:24:41.134Z,12.55
2023-06-15T04:27:13.889Z,12.42
2023-06-15T04:29:46.785Z,12.68
2023-06-15T04:32:13.638Z,12.77
2023-06-15T04:34:48.896Z,12.75
2023-06-15T04:37:18.351Z,12.82
2023-06-15T04:39:45.186Z,12.87
2023-06-15T04:42:13.159Z,12.98
2023-06-15T04:44:48.159Z,12.97
2023-06-15T04:47:14.962Z,13.05
2023-06-15T04:49:43.445Z,13.30
2023-06-15T04:52:11.156Z,13.40
2023-06-15T04:54:51.275Z,13.46
2023-06-15T04:57:18.007Z,13.77
2023-06-15T04:59:46.961Z,13.85
2023-06-15T05:02:15.936Z,14.08
2023-06-15T05:04:42.829Z,14.20
2023-06-15T05:07:09.617Z,14.53
2023-06-15T05:09:36.673Z,14.66
2023-06-15T05:12:06.170Z,14.79
2023-06-15T05:14:32.944Z,15.11
2023-06-15T05:17:08.453Z,15.49
2023-06-15T05:19:35.214Z,15.71
2023-06-15T05:22:04.298Z,16.10
2023-06-15T05:24:31.152Z,16.49
2023-06-15T05:26:58.847Z,16.71
2023-06-15T05:29:27.127Z,16.82
2023-06-15T05:31:56.769Z,17.20
2023-06-15T05:34:23.530Z,17.62
2023-06-15T05:39:21.064Z,18.57
2023-06-15T05:41:47.866Z,18.79
2023-06-15T05:44:14.688Z,19.25
2023-06-15T05:46:41.377Z,19.58
2023-06-15T05:49:08.328Z,19.88
2023-06-15T05:51:34.964Z,20.17
2023-06-15T05:54:04.738Z,20.34
2023-06-15T05:56:31.862Z,20.33
2023-06-15T05:58:58.740Z,20.19
2023-06-15T06:01:25.471Z,20.09
2023-06-15T06:03:52.158Z,20.03
2023-06-15T06:06:18.895Z,20.01
2023-06-15T06:08:45.899Z,20.06
2023-06-15T06:11:12.501Z,20.38
2023-06-15T06:13:39.176Z,20.63
2023-06-15T06:16:06.143Z,20.84
2023-06-15T06:18:32.741Z,21.13
2023-06-15T06:20:59.407Z,21.36
2023-06-15T06:23:25.989Z,21.52
2023-06-15T06:25:52.744Z,21.85
2023-06-15T06:28:19.471Z,22.47
2023-06-15T06:30:46.103Z,23.04
2023-06-15T06:33:12.853Z,23.41
2023-06-15T06:35:39.919Z,23.74
2023-06-15T06:38:06.731Z,24.10
2023-06-15T06:40:33.365Z,24.35
2023-06-15T06:42:59.890Z,24.54
2023-06-15T06:45:30.304Z,24.81
2023-06-15T06:47:57.660Z,25.20
2023-06-15T06:50:24.509Z,25.61
2023-06-15T06:52:51.298Z,25.85
2023-06-15T06:55:18.115Z,25.83
2023-06-15T06:57:44.921Z,25.93
2023-06-15T07:00:12.142Z,26.15
2023-06-15T07:02:38.854Z,26.42
2023-06-15T07:05:06.012Z,26.35
2023-06-15T07:07:32.684Z,26.50
2023-06-15T07:09:59.292Z,26.69
2023-06-15T07:12:25.850Z,26.70
2023-06-15T07:14:52.473Z,27.10
2023-06-15T07:17:19.125Z,27.57
2023-06-15T07:19:46.957Z,27.75
2023-06-15T07:22:13.645Z,27.97
2023-06-15T07:24:40.351Z,27.79
2023-06-15T07:27:07.081Z,27.83
2023-06-15T07:29:33.802Z,27.76
2023-06-15T07:32:00.525Z,28.00
2023-06-15T07:34:27.966Z,28.15
2023-06-15T07:36:54.763Z,27.78
2023-06-15T07:39:21.727Z,28.04
2023-06-15T07:41:52.577Z,28.52
2023-06-15T07:44:19.286Z,28.80
2023-06-15T07:46:45.933Z,28.85
2023-06-15T07:49:12.746Z,28.88
2023-06-15T07:51:53.090Z,28.98
2023-06-15T07:54:23.434Z,29.32
2023-06-15T07:56:50.068Z,29.51
2023-06-15T07:59:19.153Z,29.39
2023-06-15T08:01:45.979Z,29.38
2023-06-15T08:04:13.509Z,29.46
2023-06-15T08:06:40.158Z,29.73
2023-06-15T08:09:07.108Z,29.85
2023-06-15T08:11:33.979Z,29.91
2023-06-15T08:14:00.695Z,29.89
2023-06-15T08:16:27.495Z,29.57
2023-06-15T08:18:54.111Z,29.37
2023-06-15T08:21:20.708Z,29.60
2023-06-15T08:23:47.282Z,29.69
2023-06-15T08:26:16.189Z,29.89
2023-06-15T08:28:53.530Z,30.04
2023-06-15T08:31:21.364Z,30.14
2023-06-15T08:33:47.999Z,30.02
2023-06-15T08:36:14.795Z,29.88
2023-06-15T08:38:41.347Z,30.01
2023-06-15T08:41:08.392Z,30.50
2023-06-15T08:43:36.313Z,30.54
2023-06-15T08:46:04.038Z,30.68
2023-06-15T08:48:33.718Z,30.62
2023-06-15T08:51:00.642Z,31.06
2023-06-15T08:53:28.920Z,30.92
2023-06-15T08:55:56.605Z,30.74
2023-06-15T08:58:23.494Z,30.64
2023-06-15T09:00:51.780Z,30.49
2023-06-15T09:03:19.269Z,30.32
2023-06-15T09:05:45.986Z,30.50
2023-06-15T09:08:13.836Z,30.82
2023-06-15T09:10:42.677Z,30.52
2023-06-15T09:13:19.074Z,29.87
2023-06-15T09:15:51.686Z,29.86
2023-06-15T09:18:18.634Z,29.81
2023-06-15T09:20:45.349Z,30.38
2023-06-15T09:23:14.149Z,30.44
2023-06-15T09:25:49.434Z,30.87
2023-06-15T09:28:16.067Z,31.14
2023-06-15T09:30:42.624Z,31.00
2023-06-15T09:33:18.475Z,30.89
2023-06-15T09:36:00.032Z,30.68
2023-06-15T09:38:42.022Z,30.92
2023-06-15T09:41:09.369Z,31.06
2023-06-15T09:43:40.388Z,31.33
2023-06-15T09:46:21.972Z,30.96
2023-06-15T09:48:48.598Z,30.74
2023-06-15T09:51:21.538Z,30.54
2023-06-15T09:53:50.012Z,30.86
2023-06-15T09:56:29.746Z,30.98
2023-06-15T09:58:59.826Z,30.41
2023-06-15T10:01:29.042Z,31.23
2023-06-15T10:03:57.762Z,31.12
2023-06-15T10:06:27.618Z,31.22
2023-06-15T10:08:58.495Z,31.18
2023-06-15T10:11:27.307Z,30.98
2023-06-15T10:13:58.594Z,31.15
2023-06-15T10:16:27.765Z,30.91
2023-06-15T10:19:01.447Z,30.51
2023-06-15T10:21:30.515Z,30.73
2023-06-15T10:24:06.389Z,30.70
2023-06-15T10:26:33.186Z,30.76
2023-06-15T10:29:10.110Z,31.26
2023-06-15T10:31:45.215Z,31.35
2023-06-15T10:34:21.076Z,30.55
2023-06-15T10:37:27.822Z,31.01
2023-06-15T10:40:00.638Z,31.08
2023-06-15T10:42:28.375Z,31.55
2023-06-15T10:44:59.405Z,31.66
2023-06-15T10:47:26.990Z,32.19
2023-06-15T10:49:54.688Z,32.10
2023-06-15T10:52:21.539Z,31.58
2023-06-15T10:54:53.687Z,31.42
2023-06-15T10:57:29.009Z,31.71
2023-06-15T10:59:57.950Z,31.57
2023-06-15T11:02:30.922Z,31.33
2023-06-15T11:05:11.947Z,31.20
2023-06-15T11:07:44.738Z,31.24
2023-06-15T11:10:15.450Z,31.59
2023-06-15T11:12:44.281Z,31.17
2023-06-15T11:15:14.059Z,31.57
2023-06-15T11:18:00.373Z,31.25
2023-06-15T11:20:46.014Z,31.25
2023-06-15T11:23:20.318Z,31.00
2023-06-15T11:25:49.273Z,31.25
2023-06-15T11:28:34.947Z,30.47
2023-06-15T11:31:05.022Z,30.88
2023-06-15T11:33:37.279Z,31.14
2023-06-15T11:36:05.617Z,31.33
2023-06-15T11:38:32.627Z,31.46
2023-06-15T11:41:07.302Z,31.65
2023-06-15T11:43:38.289Z,31.47
2023-06-15T11:46:05.161Z,30.89
2023-06-15T11:48:31.797Z,31.04
2023-06-15T11:50:58.932Z,31.33
2023-06-15T11:53:25.606Z,31.38
2023-06-15T11:55:52.249Z,31.63
2023-06-15T11:58:19.728Z,31.90
2023-06-15T12:00:46.410Z,31.96
2023-06-15T12:03:13.844Z,32.29
2023-06-15T12:05:42.171Z,32.61
2023-06-15T12:08:11.764Z,32.20
2023-06-15T12:10:40.010Z,31.67
2023-06-15T12:13:12.729Z,32.15
2023-06-15T12:15:43.422Z,31.33
2023-06-15T12:18:10.171Z,30.11
2023-06-15T12:20:40.401Z,29.12
2023-06-15T12:23:07.304Z,28.90
2023-06-15T12:25:45.914Z,29.46
2023-06-15T12:28:21.518Z,30.64
2023-06-15T12:30:49.563Z,31.28
2023-06-15T12:33:31.277Z,31.79
2023-06-15T12:36:02.579Z,32.20
2023-06-15T12:38:31.101Z,32.08
2023-06-15T12:40:59.054Z,31.66
2023-06-15T12:43:26.669Z,30.97
2023-06-15T12:45:56.072Z,29.74
2023-06-15T12:48:24.318Z,28.71
2023-06-15T12:50:51.864Z,27.98
2023-06-15T12:53:19.704Z,27.41
2023-06-15T12:55:47.323Z,27.01
2023-06-15T12:58:14.897Z,26.80
2023-06-15T13:00:42.508Z,27.09
2023-06-15T13:03:10.369Z,28.00
2023-06-15T13:05:43.915Z,29.03
2023-06-15T13:08:10.976Z,29.53
2023-06-15T13:10:37.706Z,29.61
2023-06-15T13:13:04.243Z,30.26
2023-06-15T13:15:31.814Z,30.43
2023-06-15T13:17:58.799Z,30.64
2023-06-15T13:20:25.655Z,30.65
2023-06-15T13:22:53.119Z,30.62
2023-06-15T13:25:27.129Z,30.51
2023-06-15T13:27:53.807Z,30.45
2023-06-15T13:30:20.736Z,30.41
2023-06-15T13:32:47.607Z,30.28
2023-06-15T13:35:15.612Z,30.33
2023-06-15T13:37:43.213Z,30.14
2023-06-15T13:40:12.566Z,29.68
2023-06-15T13:42:42.003Z,29.67
2023-06-15T13:45:14.112Z,29.72
2023-06-15T13:47:42.700Z,29.52
2023-06-15T13:50:11.769Z,29.41
2023-06-15T13:52:38.353Z,29.51
2023-06-15T13:55:07.513Z,29.36
2023-06-15T13:57:35.946Z,29.43
2023-06-15T14:00:04.193Z,29.31
2023-06-15T14:02:31.457Z,29.16
2023-06-15T14:04:58.662Z,29.24
2023-06-15T14:07:25.485Z,29.27
2023-06-15T14:09:52.121Z,29.06
2023-06-15T14:12:18.835Z,29.15
2023-06-15T14:14:45.593Z,29.09
2023-06-15T14:17:12.502Z,29.07
2023-06-15T14:19:39.154Z,29.09
2023-06-15T14:22:05.856Z,29.08
2023-06-15T14:24:33.080Z,29.06
2023-06-15T14:26:59.945Z,28.99
2023-06-15T14:29:26.530Z,28.96
2023-06-15T14:31:53.263Z,28.88
2023-06-15T14:34:21.936Z,28.73
2023-06-15T14:36:50.517Z,28.58
2023-06-15T14:39:18.807Z,28.54
2023-06-15T14:41:45.786Z,28.61
2023-06-15T14:44:14.009Z,28.33
2023-06-15T14:46:42.194Z,28.33
2023-06-15T14:49:10.360Z,28.46
2023-06-15T14:51:38.067Z,28.40
2023-06-15T14:54:05.794Z,28.25
2023-06-15T14:56:32.782Z,28.22
2023-06-15T14:59:01.044Z,28.20
2023-06-15T15:01:30.100Z,28.19
2023-06-15T15:03:57.030Z,28.17
2023-06-15T15:06:24.334Z,28.01
2023-06-15T15:08:54.304Z,28.18
2023-06-15T15:11:22.573Z,27.89
2023-06-15T15:13:49.589Z,27.81
2023-06-15T15:16:16.454Z,27.79
2023-06-15T15:18:43.242Z,27.74
2023-06-15T15:21:10.416Z,27.69
2023-06-15T15:23:37.102Z,27.53
2023-06-15T15:26:04.387Z,27.50
2023-06-15T15:28:31.378Z,27.42
2023-06-15T15:30:58.796Z,27.52
2023-06-15T15:33:25.985Z,27.42
2023-06-15T15:35:53.034Z,27.49
2023-06-15T15:38:19.730Z,27.31
2023-06-15T15:40:46.400Z,27.23
2023-06-15T15:43:15.581Z,27.22
2023-06-15T15:45:42.836Z,27.19
2023-06-15T15:48:10.552Z,27.04
2023-06-15T15:50:38.879Z,26.90
2023-06-15T15:53:06.266Z,26.80
2023-06-15T15:55:32.992Z,26.72
2023-06-15T15:58:00.336Z,26.44
2023-06-15T16:00:27.264Z,26.66
2023-06-15T16:02:54.039Z,26.64
2023-06-15T16:05:21.102Z,26.68
2023-06-15T16:07:48.094Z,26.73
2023-06-15T16:10:15.346Z,26.54
2023-06-15T16:12:42.195Z,26.51
2023-06-15T16:15:10.145Z,26.39
2023-06-15T16:17:37.680Z,26.29
2023-06-15T16:20:05.793Z,26.19
2023-06-15T16:22:33.381Z,26.16
2023-06-15T16:25:00.727Z,26.11
2023-06-15T16:27:27.487Z,26.17
2023-06-15T16:29:54.371Z,26.10
2023-06-15T16:32:21.748Z,26.03
2023-06-15T16:34:48.554Z,26.08
2023-06-15T16:37:15.337Z,25.98
2023-06-15T16:39:45.997Z,25.89
2023-06-15T16:42:13.794Z,25.76
2023-06-15T16:44:41.155Z,25.71
2023-06-15T16:47:07.930Z,25.55
2023-06-15T16:49:39.535Z,25.33
2023-06-15T16:52:08.222Z,25.31
2023-06-15T16:54:38.937Z,25.16
2023-06-15T16:57:08.660Z,25.27
2023-06-15T16:59:36.031Z,25.11
2023-06-15T17:02:03.283Z,24.97
2023-06-15T17:04:33.153Z,24.88
2023-06-15T17:06:59.832Z,24.87
2023-06-15T17:09:27.354Z,24.69
2023-06-15T17:11:55.118Z,24.69
2023-06-15T17:14:21.888Z,24.70
2023-06-15T17:16:48.537Z,24.52
2023-06-15T17:19:15.718Z,24.44
2023-06-15T17:21:43.235Z,24.29
2023-06-15T17:24:10.876Z,24.38
2023-06-15T17:26:41.805Z,24.28
2023-06-15T17:29:11.229Z,24.29
2023-06-15T17:31:38.220Z,24.20
2023-06-15T17:34:05.269Z,24.18
2023-06-15T17:36:31.951Z,24.08
2023-06-15T17:38:59.080Z,23.97
2023-06-15T17:41:25.792Z,23.91
2023-06-15T17:43:52.410Z,23.82
2023-06-15T17:46:19.035Z,23.74
2023-06-15T17:48:51.105Z,23.71
2023-06-15T17:51:18.404Z,23.63
2023-06-15T17:53:45.109Z,23.49
2023-06-15T17:56:13.325Z,23.46
2023-06-15T17:58:41.042Z,23.41
2023-06-15T18:01:13.169Z,23.26
2023-06-15T18:03:41.044Z,23.19
2023-06-15T18:06:08.600Z,23.09
2023-06-15T18:08:35.878Z,22.93
2023-06-15T18:13:29.094Z,22.75
2023-06-15T18:15:55.946Z,22.61
2023-06-15T18:18:23.936Z,22.58
2023-06-15T18:20:51.291Z,22.43
2023-06-15T18:23:18.078Z,22.31
2023-06-15T18:25:45.127Z,22.24
2023-06-15T18:28:11.910Z,22.15
2023-06-15T18:30:38.759Z,22.05
2023-06-15T18:33:05.578Z,21.91
2023-06-15T18:35:32.320Z,21.81
2023-06-15T18:38:00.258Z,21.70
2023-06-15T18:40:27.904Z,21.66
2023-06-15T18:42:54.603Z,21.53
2023-06-15T18:45:21.781Z,21.47
2023-06-15T18:47:48.958Z,21.38
2023-06-15T18:50:15.907Z,21.26
2023-06-15T18:52:42.735Z,21.14
2023-06-15T18:55:09.911Z,21.01
2023-06-15T18:57:36.850Z,20.87
2023-06-15T19:00:04.428Z,20.81
2023-06-15T19:02:31.278Z,20.68
2023-06-15T19:04:57.993Z,20.57
2023-06-15T19:07:24.960Z,20.42
2023-06-15T19:09:51.612Z,20.30
2023-06-15T19:12:18.458Z,20.15
2023-06-15T19:14:45.404Z,19.99
2023-06-15T19:17:12.970Z,19.87
2023-06-15T19:19:41.849Z,19.71
2023-06-15T19:22:08.662Z,19.59
2023-06-15T19:24:35.535Z,19.43
2023-06-15T19:27:02.592Z,19.34
2023-06-15T19:29:29.705Z,19.21
2023-06-15T19:31:56.576Z,19.05
2023-06-15T19:34:23.376Z,18.99
2023-06-15T19:36:55.568Z,18.86
2023-06-15T19:39:26.366Z,18.74
2023-06-15T19:41:56.692Z,18.64
2023-06-15T19:44:23.485Z,18.56
2023-06-15T19:46:50.321Z,18.47
2023-06-15T19:49:17.017Z,18.41
2023-06-15T19:51:44.736Z,18.31
2023-06-15T19:54:11.521Z,18.20
2023-06-15T19:56:41.085Z,18.06
2023-06-15T19:59:12.444Z,18.02
2023-06-15T20:01:39.224Z,17.83
2023-06-15T20:04:05.902Z,17.67
2023-06-15T20:06:32.721Z,17.52
2023-06-15T20:09:00.392Z,17.40
2023-06-15T20:11:26.910Z,17.29
2023-06-15T20:13:53.565Z,17.05
2023-06-15T20:16:20.255Z,17.00
2023-06-15T20:18:52.334Z,16.89
2023-06-15T20:21:19.585Z,16.77
2023-06-15T20:23:46.376Z,16.63
2023-06-15T20:26:16.405Z,16.59
2023-06-15T20:28:44.272Z,16.54
2023-06-15T20:31:10.905Z,16.39
2023-06-15T20:33:38.550Z,16.31
2023-06-15T20:36:06.886Z,16.20
2023-06-15T20:38:35.886Z,16.01
2023-06-15T20:41:05.588Z,15.89
2023-06-15T20:43:33.237Z,15.85
2023-06-15T20:46:01.213Z,15.81
2023-06-15T20:48:28.267Z,15.71
2023-06-15T20:51:00.212Z,15.63
2023-06-15T20:53:27.696Z,15.52
2023-06-15T20:55:54.458Z,15.51
2023-06-15T20:58:21.935Z,15.53
2023-06-15T21:00:49.061Z,15.36
2023-06-15T21:03:16.032Z,15.36
2023-06-15T21:05:42.729Z,15.30
2023-06-15T21:08:10.779Z,15.23
2023-06-15T21:10:37.561Z,15.19
2023-06-15T21:13:05.902Z,15.13
2023-06-15T21:18:35.839Z,15.10
2023-06-15T21:21:25.455Z,14.87
2023-06-15T21:27:16.308Z,14.95
2023-06-15T21:29:43.026Z,14.91
2023-06-15T21:32:09.788Z,14.97
2023-06-15T21:34:39.179Z,14.88
2023-06-15T21:37:10.193Z,14.71
2023-06-15T21:39:38.758Z,14.83
2023-06-15T21:42:08.300Z,14.81
2023-06-15T21:44:35.139Z,14.77
2023-06-15T21:47:03.839Z,14.66
2023-06-15T21:49:30.668Z,14.54
2023-06-15T21:52:34.272Z,14.66
2023-06-15T21:55:06.251Z,14.65
2023-06-15T21:57:34.330Z,14.76
2023-06-15T22:00:06.871Z,14.76
2023-06-15T23:12:27.039Z,13.84
2023-06-15T23:14:58.816Z,13.90
2023-06-15T23:17:27.704Z,13.93
2023-06-15T23:19:54.500Z,13.79
2023-06-15T23:22:23.639Z,13.89
2023-06-15T23:24:55.041Z,13.87
2023-06-15T23:27:23.404Z,13.94
2023-06-15T23:29:50.388Z,13.87
2023-06-15T23:32:17.548Z,13.83
2023-06-15T23:34:45.132Z,13.79
2023-06-15T23:37:11.723Z,13.78
2023-06-15T23:39:38.319Z,13.92
2023-06-15T23:42:05.904Z,13.70
2023-06-15T23:44:32.709Z,13.77
2023-06-15T23:47:23.758Z,13.72
2023-06-15T23:49:52.863Z,13.70
2023-06-15T23:52:19.730Z,13.77
2023-06-15T23:54:48.664Z,13.72
2023-06-15T23:57:15.809Z,13.76
2023-06-15T23:59:45.906Z,13.77
